Time;durP1;ratioP1;P1;durP2;ratioP2;P2;SDS_P1;SDS_P2;PMS_P1;PMS_P2;Temp;Humidity;BMP_temperature;BMP_pressure;BME280_temperature;BME280_humidity;BME280_pressure;Samples;Min_cycle;Max_cycle;Signal;HPM_P1;HPM_P2
2024/03/06 00:02:24;;;;;;;37.67;23.63;;;7.20;99.90;;;;;;5055594;28;20109;-77
2024/03/06 00:04:50;;;;;;;36.10;21.60;;;7.20;99.90;;;;;;5074028;28;20039;-77
2024/03/06 00:07:16;;;;;;;36.33;23.00;;;7.20;99.90;;;;;;5073330;28;20592;-77
2024/03/06 00:09:41;;;;;;;35.83;22.33;;;7.20;99.90;;;;;;5047364;28;20036;-77
2024/03/06 00:12:07;;;;;;;36.15;22.50;;;7.20;99.90;;;;;;5055797;28;20127;-77
2024/03/06 00:14:34;;;;;;;38.33;21.33;;;7.20;99.90;;;;;;5055849;28;20077;-77
2024/03/06 00:17:00;;;;;;;31.95;20.35;;;7.20;99.90;;;;;;5073634;28;20138;-77
2024/03/06 00:19:25;;;;;;;33.33;21.38;;;7.20;99.90;;;;;;5071040;28;20116;-76
2024/03/06 00:21:51;;;;;;;29.73;21.02;;;7.20;99.90;;;;;;5072964;28;20028;-77
2024/03/06 00:24:16;;;;;;;33.35;20.70;;;7.20;99.90;;;;;;5073363;28;20048;-77
2024/03/06 00:26:46;;;;;;;31.33;19.65;;;7.20;99.90;;;;;;5072452;28;20137;-77
2024/03/06 00:29:13;;;;;;;28.20;19.02;;;7.20;99.90;;;;;;5073075;28;20040;-74
2024/03/06 00:31:44;;;;;;;31.65;19.65;;;7.10;99.90;;;;;;5038217;28;20040;-77
2024/03/06 00:34:10;;;;;;;30.90;18.30;;;7.10;99.90;;;;;;5072642;28;20066;-77
2024/03/06 00:36:37;;;;;;;27.15;17.45;;;7.10;99.90;;;;;;5065860;28;20040;-77
2024/03/06 00:39:04;;;;;;;25.83;16.75;;;7.10;99.90;;;;;;5051963;28;20376;-77
2024/03/06 00:41:30;;;;;;;27.70;16.73;;;7.10;99.90;;;;;;5048723;28;20555;-77
2024/03/06 00:43:56;;;;;;;30.08;17.17;;;7.10;99.90;;;;;;5072495;28;20045;-75
2024/03/06 00:46:22;;;;;;;26.92;15.88;;;7.10;99.90;;;;;;5054695;28;20032;-77
2024/03/06 00:48:47;;;;;;;25.67;15.88;;;7.10;99.90;;;;;;5072820;28;20044;-77
2024/03/06 00:51:13;;;;;;;27.17;15.15;;;7.10;99.90;;;;;;5053011;28;20045;-77
2024/03/06 00:53:39;;;;;;;21.75;14.77;;;7.10;99.90;;;;;;5107972;23;20047;-75
2024/03/06 00:56:05;;;;;;;24.55;14.38;;;7.10;99.90;;;;;;5026458;28;20041;-75
2024/03/06 00:58:34;;;;;;;24.08;14.35;;;7.00;99.90;;;;;;5020093;28;20392;-75
2024/03/06 01:01:00;;;;;;;22.92;14.13;;;7.70;99.90;;;;;;5045824;28;20146;-75
2024/03/06 01:03:27;;;;;;;23.05;13.48;;;8.20;99.90;;;;;;5048014;28;20112;-76
2024/03/06 01:05:55;;;;;;;22.27;12.95;;;7.80;99.90;;;;;;5033375;28;20075;-75
2024/03/06 01:08:27;;;;;;;26.48;13.15;;;7.00;99.90;;;;;;5029904;28;20033;-76
2024/03/06 01:10:52;;;;;;;20.52;12.38;;;7.00;99.90;;;;;;5050691;28;20495;-76
2024/03/06 01:13:19;;;;;;;20.20;11.18;;;7.00;99.90;;;;;;5044840;28;20047;-76
2024/03/06 01:15:44;;;;;;;24.15;11.95;;;7.00;99.90;;;;;;5048888;28;20376;-75
2024/03/06 01:18:10;;;;;;;20.27;11.95;;;8.20;99.90;;;;;;5028443;28;20047;-76
2024/03/06 01:20:37;;;;;;;21.38;12.00;;;7.90;99.90;;;;;;5040958;28;20088;-76
2024/03/06 01:23:04;;;;;;;18.23;12.05;;;7.00;99.90;;;;;;5048546;28;20045;-76
2024/03/06 01:25:32;;;;;;;17.52;10.75;;;7.00;99.90;;;;;;5032823;28;20059;-76
2024/03/06 01:28:03;;;;;;;19.30;11.52;;;8.00;99.90;;;;;;5036935;28;20033;-76
2024/03/06 01:30:29;;;;;;;18.50;11.68;;;6.90;99.90;;;;;;5023394;28;20043;-76
2024/03/06 01:32:55;;;;;;;20.05;12.00;;;7.00;99.90;;;;;;5019642;28;20037;-76
2024/03/06 01:35:21;;;;;;;19.80;10.35;;;6.90;99.90;;;;;;5021969;28;20483;-76
2024/03/06 01:37:54;;;;;;;19.55;11.02;;;7.90;99.90;;;;;;5033284;28;20025;-76
2024/03/06 01:40:22;;;;;;;16.95;10.77;;;7.80;99.90;;;;;;5023840;28;20051;-76
2024/03/06 01:42:51;;;;;;;16.77;10.68;;;6.90;99.90;;;;;;5033233;28;20034;-76
2024/03/06 01:45:17;;;;;;;16.77;10.55;;;6.90;99.90;;;;;;5034996;28;20472;-76
2024/03/06 01:47:45;;;;;;;20.65;10.63;;;7.30;99.90;;;;;;5049239;28;20144;-76
2024/03/06 01:50:10;;;;;;;22.05;11.07;;;6.70;99.90;;;;;;5037816;28;20049;-76
2024/03/06 01:52:39;;;;;;;20.73;10.43;;;6.80;99.90;;;;;;5036753;28;20041;-76
2024/03/06 01:55:08;;;;;;;20.42;10.93;;;6.80;99.90;;;;;;5052344;28;20093;-76
2024/03/06 01:57:35;;;;;;;19.10;11.50;;;6.80;99.90;;;;;;5030917;28;20060;-76
2024/03/06 02:00:05;;;;;;;17.08;10.98;;;6.80;99.90;;;;;;5014612;28;20503;-76
2024/03/06 02:02:33;;;;;;;21.13;11.40;;;6.80;99.90;;;;;;5051904;28;20072;-76
2024/03/06 02:05:00;;;;;;;22.95;10.95;;;6.80;99.90;;;;;;5051273;28;20079;-76
2024/03/06 02:07:31;;;;;;;17.80;10.65;;;6.80;99.90;;;;;;5013917;28;20459;-76
2024/03/06 02:10:00;;;;;;;15.20;9.70;;;6.80;99.90;;;;;;5017892;28;20498;-76
2024/03/06 02:12:27;;;;;;;19.60;10.65;;;6.80;99.90;;;;;;5017853;28;20037;-76
2024/03/06 02:14:56;;;;;;;19.80;10.73;;;6.70;99.90;;;;;;5011706;28;20061;-76
2024/03/06 02:17:21;;;;;;;17.05;9.95;;;6.70;99.90;;;;;;5050573;28;20075;-76
2024/03/06 02:19:47;;;;;;;16.17;9.70;;;6.70;99.90;;;;;;5016358;28;20041;-76
2024/03/06 02:22:13;;;;;;;22.50;10.10;;;6.70;99.90;;;;;;5052865;28;20029;-75
2024/03/06 02:24:46;;;;;;;19.80;9.85;;;6.70;99.90;;;;;;5051810;28;20029;-75
2024/03/06 02:27:11;;;;;;;19.17;10.65;;;6.70;99.90;;;;;;5039953;28;20045;-75
2024/03/06 02:29:40;;;;;;;20.10;9.85;;;6.70;99.90;;;;;;5027297;28;20078;-75
2024/03/06 02:32:05;;;;;;;18.70;10.50;;;6.70;99.90;;;;;;5035817;28;20119;-76
2024/03/06 02:34:33;;;;;;;17.83;9.88;;;8.00;99.90;;;;;;5025778;28;20563;-76
2024/03/06 02:36:58;;;;;;;16.58;10.60;;;6.70;99.90;;;;;;5031514;28;20029;-76
2024/03/06 02:39:24;;;;;;;18.75;9.60;;;7.20;99.90;;;;;;5042947;28;20056;-76
2024/03/06 02:41:50;;;;;;;17.05;10.57;;;6.70;99.90;;;;;;5032097;28;20044;-76
2024/03/06 02:44:17;;;;;;;16.27;10.25;;;6.70;99.90;;;;;;5030763;28;20443;-75
2024/03/06 02:46:48;;;;;;;19.23;10.18;;;6.70;99.90;;;;;;5047089;28;20390;-76
2024/03/06 02:49:15;;;;;;;18.98;10.18;;;6.60;99.90;;;;;;5011023;28;20049;-76
2024/03/06 02:51:43;;;;;;;21.73;10.73;;;6.70;99.90;;;;;;5033044;28;20507;-76
2024/03/06 02:54:13;;;;;;;19.10;10.15;;;6.60;99.90;;;;;;5028816;28;20041;-76
2024/03/06 02:56:38;;;;;;;17.15;10.38;;;6.80;99.90;;;;;;5051076;28;20037;-76
2024/03/06 02:59:04;;;;;;;17.45;10.30;;;6.60;99.90;;;;;;5035761;28;20118;-76
2024/03/06 03:01:30;;;;;;;21.10;10.25;;;7.70;99.90;;;;;;5031933;28;20074;-76
2024/03/06 03:03:57;;;;;;;19.00;10.82;;;6.60;99.90;;;;;;5047545;28;20045;-76
2024/03/06 03:06:24;;;;;;;17.75;11.00;;;6.60;99.90;;;;;;5034386;28;20380;-76
2024/03/06 03:08:50;;;;;;;19.40;10.25;;;7.60;99.90;;;;;;5015302;28;20098;-76
2024/03/06 03:11:16;;;;;;;22.00;10.57;;;6.60;99.90;;;;;;5030882;28;20124;-76
2024/03/06 03:13:43;;;;;;;18.25;10.75;;;6.50;99.90;;;;;;5048869;28;20116;-76
2024/03/06 03:16:23;;;;;;;19.45;10.55;;;7.30;99.90;;;;;;5017133;28;20041;-76
2024/03/06 03:18:52;;;;;;;19.23;10.98;;;6.60;99.90;;;;;;5043443;28;20121;-76
2024/03/06 03:21:18;;;;;;;17.70;10.65;;;6.90;99.90;;;;;;5046508;28;20036;-76
2024/03/06 03:23:44;;;;;;;20.15;9.98;;;6.60;99.90;;;;;;5053003;28;20033;-76
2024/03/06 03:26:11;;;;;;;19.73;11.18;;;6.60;99.90;;;;;;5018426;28;20056;-75
2024/03/06 03:28:40;;;;;;;22.42;11.13;;;6.50;99.90;;;;;;5046499;28;20415;-75
2024/03/06 03:31:10;;;;;;;19.33;10.73;;;6.50;99.90;;;;;;5051247;28;20041;-75
2024/03/06 03:33:39;;;;;;;19.67;11.48;;;6.60;99.90;;;;;;5028601;28;20041;-75
2024/03/06 03:36:07;;;;;;;17.35;11.05;;;6.60;99.90;;;;;;5044646;28;20046;-75
2024/03/06 03:38:37;;;;;;;17.83;10.13;;;6.60;99.90;;;;;;5047661;28;20492;-76
2024/03/06 03:41:07;;;;;;;22.02;10.98;;;6.60;99.90;;;;;;5048250;28;20037;-76
2024/03/06 03:43:33;;;;;;;20.33;11.35;;;6.60;99.90;;;;;;5029210;28;20735;-75
2024/03/06 03:46:04;;;;;;;20.80;10.73;;;7.30;99.90;;;;;;5029045;28;20041;-76
2024/03/06 03:48:30;;;;;;;20.63;10.73;;;6.60;99.90;;;;;;5028716;28;20064;-76
2024/03/06 03:50:55;;;;;;;20.00;10.00;;;6.30;99.90;;;;;;5030713;28;20045;-76
2024/03/06 03:53:21;;;;;;;20.17;10.82;;;6.60;99.90;;;;;;5046000;28;20072;-75
2024/03/06 03:55:46;;;;;;;20.63;10.23;;;6.60;99.90;;;;;;5021068;28;20033;-76
2024/03/06 03:58:13;;;;;;;19.38;10.75;;;6.60;99.90;;;;;;5023284;28;20053;-76
2024/03/06 04:00:38;;;;;;;16.67;9.85;;;7.10;99.90;;;;;;5032708;28;20037;-76
2024/03/06 04:03:04;;;;;;;21.80;10.55;;;6.60;99.90;;;;;;5019983;28;20048;-76
2024/03/06 04:05:31;;;;;;;18.33;10.25;;;6.60;99.90;;;;;;5049702;28;20033;-76
2024/03/06 04:07:58;;;;;;;19.50;10.27;;;7.40;99.90;;;;;;5049835;28;20037;-76
2024/03/06 04:10:26;;;;;;;19.63;10.38;;;6.60;99.90;;;;;;5016707;28;20099;-75
2024/03/06 04:12:53;;;;;;;17.23;10.40;;;6.50;99.90;;;;;;5039308;28;20530;-76
2024/03/06 04:15:19;;;;;;;22.20;10.65;;;6.60;99.90;;;;;;5046136;28;20372;-76
2024/03/06 04:17:44;;;;;;;16.27;10.98;;;6.50;99.90;;;;;;5038422;28;20036;-76
2024/03/06 04:20:12;;;;;;;20.02;10.77;;;6.50;99.90;;;;;;5040415;28;20095;-75
2024/03/06 04:22:39;;;;;;;17.35;10.77;;;7.60;99.90;;;;;;5038758;28;20041;-76
2024/03/06 04:25:04;;;;;;;22.75;11.23;;;6.50;99.90;;;;;;5049823;28;20045;-76
2024/03/06 04:27:30;;;;;;;20.52;10.52;;;6.50;99.90;;;;;;5052374;28;20487;-76
2024/03/06 04:29:56;;;;;;;18.25;11.07;;;7.00;99.90;;;;;;5018802;28;20045;-76
2024/03/06 04:32:22;;;;;;;18.58;11.07;;;6.50;99.90;;;;;;5041366;28;20037;-76
2024/03/06 04:34:47;;;;;;;20.90;10.38;;;6.50;99.90;;;;;;5018875;28;20033;-76
2024/03/06 04:37:13;;;;;;;20.67;10.70;;;6.50;99.90;;;;;;5054944;28;20387;-75
2024/03/06 04:39:40;;;;;;;22.25;11.13;;;7.50;99.90;;;;;;5031432;28;20120;-76
2024/03/06 04:42:06;;;;;;;21.02;10.95;;;6.50;99.90;;;;;;5039955;28;20045;-75
2024/03/06 04:44:36;;;;;;;15.75;10.80;;;6.50;99.90;;;;;;5047887;28;20167;-75
2024/03/06 04:47:03;;;;;;;23.80;11.15;;;7.80;99.90;;;;;;5050043;28;20395;-75
2024/03/06 04:49:34;;;;;;;19.42;10.85;;;6.60;99.90;;;;;;5040711;28;20116;-76
2024/03/06 04:52:00;;;;;;;17.02;10.85;;;6.50;99.90;;;;;;5027292;28;20041;-75
2024/03/06 04:54:25;;;;;;;20.98;11.00;;;7.50;99.90;;;;;;5043429;28;20044;-76
2024/03/06 04:56:51;;;;;;;23.15;11.82;;;6.40;99.90;;;;;;5024367;28;20040;-76
2024/03/06 04:59:26;;;;;;;27.33;12.30;;;6.40;99.90;;;;;;5033836;28;20431;-76
2024/03/06 05:01:52;;;;;;;20.58;11.18;;;6.50;99.90;;;;;;5022514;28;20037;-75
2024/03/06 05:04:17;;;;;;;20.23;11.13;;;6.50;99.90;;;;;;5027525;28;20033;-75
2024/03/06 05:06:57;;;;;;;20.30;11.88;;;7.10;99.90;;;;;;5053836;28;20437;-76
2024/03/06 05:09:22;;;;;;;22.88;11.85;;;6.50;99.90;;;;;;5020396;28;20373;-75
2024/03/06 05:11:51;;;;;;;21.70;11.77;;;6.50;99.90;;;;;;5015079;28;20045;-76
2024/03/06 05:14:17;;;;;;;20.10;12.10;;;6.50;99.90;;;;;;5035023;28;20046;-76
2024/03/06 05:16:44;;;;;;;21.20;11.85;;;6.50;99.90;;;;;;5022150;28;20045;-76
2024/03/06 05:19:10;;;;;;;24.42;12.05;;;6.50;99.90;;;;;;5000105;28;20128;-76
2024/03/06 05:21:37;;;;;;;23.10;11.85;;;6.30;99.90;;;;;;4991280;28;20467;-76
2024/03/06 05:24:03;;;;;;;19.15;11.90;;;6.50;99.90;;;;;;5014670;28;20095;-76
2024/03/06 05:26:29;;;;;;;19.38;11.15;;;6.50;99.90;;;;;;4997403;28;20439;-76
2024/03/06 05:29:09;;;;;;;23.67;12.85;;;6.50;99.90;;;;;;5024157;28;20508;-76
2024/03/06 05:31:34;;;;;;;23.13;12.70;;;6.50;99.90;;;;;;5015953;28;20037;-75
2024/03/06 05:34:00;;;;;;;22.17;12.45;;;6.50;99.90;;;;;;5028216;28;20041;-75
2024/03/06 05:36:26;;;;;;;20.63;12.45;;;6.50;99.90;;;;;;5008249;28;20061;-75
2024/03/06 05:38:52;;;;;;;21.13;12.02;;;6.50;99.90;;;;;;5022883;28;20059;-75
2024/03/06 05:41:19;;;;;;;21.05;12.70;;;6.50;99.90;;;;;;5015994;28;20048;-75
2024/03/06 05:43:44;;;;;;;25.95;12.60;;;6.50;99.90;;;;;;5014396;28;20040;-75
2024/03/06 05:46:10;;;;;;;26.48;12.35;;;7.50;99.90;;;;;;4997791;28;20041;-75
2024/03/06 05:48:35;;;;;;;23.20;13.23;;;6.50;99.90;;;;;;4989123;28;20037;-75
2024/03/06 05:51:01;;;;;;;20.42;13.02;;;6.50;99.90;;;;;;5031954;28;20065;-75
2024/03/06 05:53:55;;;;;;;21.98;13.13;;;6.50;99.90;;;;;;5005661;28;20034;-75
2024/03/06 05:56:27;;;;;;;20.75;13.35;;;6.50;99.90;;;;;;5026880;28;20042;-75
2024/03/06 05:58:54;;;;;;;24.15;14.35;;;6.10;99.90;;;;;;5022613;28;20042;-75
2024/03/06 06:01:20;;;;;;;21.80;13.55;;;6.50;99.90;;;;;;5026272;28;20093;-75
2024/03/06 06:03:49;;;;;;;26.08;13.88;;;6.50;99.90;;;;;;5005759;28;20029;-75
2024/03/06 06:06:16;;;;;;;22.73;13.55;;;6.50;99.90;;;;;;5030865;28;20467;-75
2024/03/06 06:08:44;;;;;;;24.48;14.07;;;6.50;99.90;;;;;;5022942;28;20033;-75
2024/03/06 06:11:10;;;;;;;23.88;13.90;;;6.10;99.90;;;;;;5006691;28;20516;-76
2024/03/06 06:13:42;;;;;;;28.55;14.95;;;6.50;99.90;;;;;;5010561;28;20056;-76
2024/03/06 06:16:17;;;;;;;26.15;14.88;;;6.50;99.90;;;;;;5000498;28;20092;-75
2024/03/06 06:18:42;;;;;;;30.15;15.02;;;6.50;99.90;;;;;;5007230;28;20051;-75
2024/03/06 06:21:08;;;;;;;26.00;14.57;;;6.50;99.90;;;;;;5010516;28;20127;-76
2024/03/06 06:23:35;;;;;;;28.98;14.93;;;6.50;99.90;;;;;;5002627;28;20037;-75
2024/03/06 06:26:20;;;;;;;26.65;15.35;;;6.90;99.90;;;;;;5027567;28;20068;-75
2024/03/06 06:28:52;;;;;;;27.50;14.65;;;6.50;99.90;;;;;;5032204;28;20033;-75
2024/03/06 06:31:18;;;;;;;28.85;15.70;;;6.50;99.90;;;;;;5021796;28;20068;-75
2024/03/06 06:33:45;;;;;;;27.23;15.30;;;6.50;99.90;;;;;;5026997;28;20034;-75
2024/03/06 06:36:22;;;;;;;29.83;15.50;;;6.50;99.90;;;;;;4999908;28;20500;-75
2024/03/06 06:38:49;;;;;;;29.88;15.88;;;6.50;99.90;;;;;;5014777;28;20116;-76
2024/03/06 06:41:17;;;;;;;30.98;15.50;;;6.30;99.90;;;;;;5007773;28;20091;-76
2024/03/06 06:43:42;;;;;;;30.83;15.50;;;6.50;99.90;;;;;;5005227;28;20041;-76
2024/03/06 06:46:08;;;;;;;30.08;16.50;;;7.00;99.90;;;;;;4995396;28;20079;-76
2024/03/06 06:48:34;;;;;;;27.40;15.77;;;6.50;99.90;;;;;;5016638;28;20098;-75
2024/03/06 06:51:02;;;;;;;33.30;16.25;;;6.50;99.90;;;;;;4998339;28;20045;-75
2024/03/06 06:53:30;;;;;;;34.15;16.48;;;7.60;99.90;;;;;;4996520;28;20067;-75
2024/03/06 06:55:56;;;;;;;31.27;16.52;;;6.50;99.90;;;;;;4983078;28;20099;-76
2024/03/06 06:58:26;;;;;;;33.65;16.75;;;6.50;99.90;;;;;;5021698;28;20127;-76
2024/03/06 07:00:53;;;;;;;38.20;16.40;;;6.80;99.90;;;;;;4991981;28;20416;-76
2024/03/06 07:03:18;;;;;;;31.60;16.83;;;7.50;99.90;;;;;;5010203;28;20048;-76
2024/03/06 07:05:44;;;;;;;38.83;17.58;;;6.60;99.90;;;;;;5023696;28;20030;-76
2024/03/06 07:08:10;;;;;;;31.30;16.65;;;7.10;99.90;;;;;;5024167;28;20041;-76
2024/03/06 07:10:35;;;;;;;33.38;17.02;;;6.50;99.90;;;;;;5026448;28;20434;-76
2024/03/06 07:13:06;;;;;;;31.85;17.02;;;6.60;99.90;;;;;;4982021;28;20048;-76
2024/03/06 07:15:35;;;;;;;35.80;18.42;;;6.60;99.90;;;;;;5010073;28;20049;-75
2024/03/06 07:18:00;;;;;;;30.02;16.27;;;6.60;99.90;;;;;;4987449;28;20543;-75
2024/03/06 07:20:26;;;;;;;34.28;17.42;;;6.10;99.90;;;;;;5004695;28;20037;-75
2024/03/06 07:22:52;;;;;;;37.40;17.15;;;6.60;99.90;;;;;;5008631;28;20112;-75
2024/03/06 07:25:18;;;;;;;33.13;17.38;;;6.60;99.90;;;;;;5024349;28;20060;-75
2024/03/06 07:27:43;;;;;;;34.67;17.25;;;6.60;99.90;;;;;;5007414;28;20116;-75
2024/03/06 07:30:10;;;;;;;33.90;18.33;;;6.60;99.90;;;;;;4988154;28;20110;-75
2024/03/06 07:32:36;;;;;;;33.20;18.48;;;6.70;99.90;;;;;;5027758;28;20049;-76
2024/03/06 07:35:02;;;;;;;33.17;17.13;;;6.60;99.90;;;;;;5021530;28;20047;-76
2024/03/06 07:37:27;;;;;;;33.90;18.48;;;6.70;99.90;;;;;;4996337;28;20050;-75
2024/03/06 07:39:53;;;;;;;34.05;18.75;;;6.70;99.90;;;;;;5008365;28;20083;-79
2024/03/06 07:42:22;;;;;;;32.92;17.60;;;6.70;99.90;;;;;;5009324;28;20041;-76
2024/03/06 07:44:47;;;;;;;32.97;17.40;;;6.70;99.90;;;;;;5012282;28;20041;-76
2024/03/06 07:47:14;;;;;;;35.92;17.98;;;6.70;99.90;;;;;;5008857;28;20034;-76
2024/03/06 07:49:40;;;;;;;34.47;17.45;;;7.40;99.90;;;;;;4997487;28;20041;-76
2024/03/06 07:52:05;;;;;;;35.40;17.85;;;7.90;99.90;;;;;;4986953;28;20044;-76
2024/03/06 07:54:33;;;;;;;33.33;18.15;;;6.80;99.90;;;;;;5015228;28;20033;-78
2024/03/06 07:57:00;;;;;;;32.95;17.63;;;6.80;99.90;;;;;;5008469;28;20049;-76
2024/03/06 07:59:29;;;;;;;35.38;18.42;;;6.80;99.90;;;;;;4989770;28;20048;-76
2024/03/06 08:01:55;;;;;;;32.97;18.00;;;6.80;99.90;;;;;;5029909;28;20103;-76
2024/03/06 08:04:21;;;;;;;37.10;18.73;;;6.90;99.90;;;;;;4997941;28;20033;-76
2024/03/06 08:06:50;;;;;;;33.83;18.60;;;6.90;99.90;;;;;;5030728;28;20551;-75
2024/03/06 08:09:19;;;;;;;36.55;19.13;;;7.40;99.90;;;;;;5019982;28;20045;-76
2024/03/06 08:11:49;;;;;;;35.17;19.27;;;7.00;99.90;;;;;;5011833;28;20037;-75
2024/03/06 08:14:17;;;;;;;39.53;19.13;;;7.50;99.90;;;;;;5021091;28;20060;-75
2024/03/06 08:16:47;;;;;;;34.55;18.30;;;8.30;99.90;;;;;;5004574;28;20088;-76
2024/03/06 08:19:12;;;;;;;37.58;19.08;;;7.00;99.90;;;;;;5028135;28;20105;-76
2024/03/06 08:21:42;;;;;;;39.00;20.17;;;7.00;99.90;;;;;;5027180;28;20073;-75
2024/03/06 08:24:12;;;;;;;37.42;19.15;;;7.00;99.90;;;;;;5010783;28;20038;-75
2024/03/06 08:26:38;;;;;;;39.28;19.50;;;7.00;99.90;;;;;;4998208;28;20025;-76
2024/03/06 08:29:06;;;;;;;42.30;19.30;;;7.10;99.90;;;;;;4989301;28;20048;-76
2024/03/06 08:31:32;;;;;;;34.10;18.77;;;7.00;99.90;;;;;;5005348;28;20037;-75
2024/03/06 08:34:01;;;;;;;39.25;19.42;;;7.00;99.90;;;;;;4990469;28;20048;-75
2024/03/06 08:36:27;;;;;;;33.88;18.90;;;7.10;99.90;;;;;;5003062;28;20318;-74
2024/03/06 08:38:52;;;;;;;35.90;19.00;;;7.10;99.90;;;;;;5012419;28;20416;-76
2024/03/06 08:41:18;;;;;;;39.08;20.05;;;7.10;99.90;;;;;;4988919;28;20159;-75
2024/03/06 08:43:45;;;;;;;34.80;19.58;;;7.60;99.90;;;;;;5007914;28;20041;-75
2024/03/06 08:46:14;;;;;;;37.53;20.35;;;7.30;99.90;;;;;;5020877;28;20404;-74
2024/03/06 08:48:43;;;;;;;39.53;18.60;;;7.20;99.90;;;;;;5005522;28;20471;-75
2024/03/06 08:51:10;;;;;;;36.28;19.45;;;7.20;99.90;;;;;;5010853;28;20638;-75
2024/03/06 08:53:37;;;;;;;43.13;21.48;;;7.30;99.90;;;;;;5023657;28;20456;-75
2024/03/06 08:56:06;;;;;;;40.80;19.73;;;7.20;99.90;;;;;;5027506;28;20037;-75
2024/03/06 08:58:32;;;;;;;37.58;19.90;;;7.30;99.90;;;;;;5006251;28;20053;-76
2024/03/06 09:00:58;;;;;;;34.58;20.35;;;7.30;99.90;;;;;;4994113;28;20095;-76
2024/03/06 09:03:26;;;;;;;35.30;18.98;;;7.30;99.90;;;;;;4996479;28;20033;-76
2024/03/06 09:05:52;;;;;;;33.72;19.73;;;7.30;99.90;;;;;;4991996;28;20044;-76
2024/03/06 09:08:18;;;;;;;35.70;19.75;;;7.30;99.90;;;;;;5032934;28;20117;-76
2024/03/06 09:10:48;;;;;;;34.47;19.98;;;8.20;99.90;;;;;;5016612;28;20073;-76
2024/03/06 09:13:17;;;;;;;32.80;19.05;;;7.30;99.90;;;;;;5034658;28;20037;-76
2024/03/06 09:15:45;;;;;;;35.00;19.60;;;7.40;99.90;;;;;;5033318;28;20068;-76
2024/03/06 09:18:12;;;;;;;36.50;20.15;;;8.50;99.90;;;;;;4993420;28;20049;-76
2024/03/06 09:20:38;;;;;;;40.67;19.00;;;8.50;99.90;;;;;;5008823;28;20065;-76
2024/03/06 09:23:04;;;;;;;39.45;20.83;;;6.50;99.90;;;;;;5034221;28;20080;-77
2024/03/06 09:25:29;;;;;;;40.25;20.08;;;7.50;99.90;;;;;;5034625;28;20068;-76
2024/03/06 09:27:55;;;;;;;37.33;20.20;;;7.50;99.90;;;;;;5030422;28;20492;-77
2024/03/06 09:30:21;;;;;;;35.28;20.25;;;8.10;99.90;;;;;;5024840;28;20044;-77
2024/03/06 09:32:47;;;;;;;37.75;19.75;;;7.50;99.90;;;;;;5025389;28;20057;-77
2024/03/06 09:35:14;;;;;;;37.35;19.85;;;7.60;99.90;;;;;;5000305;28;20073;-78
2024/03/06 09:37:39;;;;;;;36.40;21.10;;;7.60;99.90;;;;;;5029838;28;20044;-76
2024/03/06 09:40:07;;;;;;;32.03;20.08;;;8.80;99.90;;;;;;5021989;28;20042;-77
2024/03/06 09:42:33;;;;;;;39.72;20.95;;;7.60;99.90;;;;;;5009879;28;20052;-77
2024/03/06 09:45:01;;;;;;;32.15;19.92;;;8.90;99.90;;;;;;5006940;28;20077;-77
2024/03/06 09:47:32;;;;;;;31.75;19.55;;;7.70;99.90;;;;;;5001262;28;20448;-76
2024/03/06 09:49:57;;;;;;;34.33;19.40;;;7.80;99.90;;;;;;5028839;28;20041;-77
2024/03/06 09:52:27;;;;;;;33.33;19.88;;;9.00;99.90;;;;;;5003151;28;20063;-77
2024/03/06 09:54:56;;;;;;;39.83;20.40;;;7.50;99.90;;;;;;5022663;28;20080;-77
2024/03/06 09:57:27;;;;;;;37.15;20.38;;;7.90;99.90;;;;;;4988202;28;20049;-76
2024/03/06 09:59:52;;;;;;;32.28;19.75;;;8.00;99.90;;;;;;4997207;28;20101;-77
2024/03/06 10:02:54;;;;;;;33.53;20.00;;;8.90;99.90;;;;;;5028021;28;20116;-77
2024/03/06 10:05:23;;;;;;;33.88;19.48;;;8.10;99.90;;;;;;5013252;28;20044;-79
2024/03/06 10:08:07;;;;;;;31.30;19.42;;;8.10;99.90;;;;;;5000057;28;20492;-77
2024/03/06 10:10:34;;;;;;;32.55;20.05;;;8.20;99.90;;;;;;4999065;28;20107;-77
2024/03/06 10:12:59;;;;;;;41.00;21.35;;;8.20;99.90;;;;;;5033865;28;20040;-76
2024/03/06 10:15:36;;;;;;;35.20;19.73;;;8.20;99.90;;;;;;5015788;28;20029;-78
2024/03/06 10:18:15;;;;;;;39.63;21.48;;;8.20;99.90;;;;;;5015112;28;20049;-77
2024/03/06 10:21:05;;;;;;;36.85;21.02;;;8.30;99.90;;;;;;5011644;28;20034;-77
2024/03/06 10:23:31;;;;;;;37.42;21.45;;;8.30;99.90;;;;;;5014376;28;20140;-77
2024/03/06 10:25:57;;;;;;;37.28;22.42;;;8.30;99.90;;;;;;5014738;28;20073;-77
2024/03/06 10:28:23;;;;;;;37.33;21.17;;;8.50;99.90;;;;;;5022904;28;20116;-76
2024/03/06 10:30:50;;;;;;;34.05;20.45;;;8.20;99.90;;;;;;5029601;28;20076;-76
2024/03/06 10:33:20;;;;;;;37.42;21.67;;;8.50;99.90;;;;;;5016813;28;20504;-76
2024/03/06 10:35:51;;;;;;;36.15;21.88;;;8.50;99.90;;;;;;5006945;28;20492;-76
2024/03/06 10:38:21;;;;;;;40.30;21.75;;;9.40;99.90;;;;;;4986505;28;20033;-76
2024/03/06 10:40:50;;;;;;;37.58;21.95;;;8.50;99.90;;;;;;5016536;28;20034;-76
2024/03/06 10:43:17;;;;;;;37.75;21.83;;;8.50;99.90;;;;;;5005194;28;20524;-76
2024/03/06 10:45:51;;;;;;;35.63;21.75;;;9.20;99.90;;;;;;4985118;28;20062;-76
2024/03/06 10:48:20;;;;;;;39.17;22.08;;;8.60;99.90;;;;;;5006428;28;20362;-76
2024/03/06 10:50:47;;;;;;;36.47;22.23;;;9.60;99.90;;;;;;5025116;28;20030;-76
2024/03/06 10:53:14;;;;;;;37.22;22.33;;;8.70;99.90;;;;;;5016427;28;20038;-76
2024/03/06 10:55:46;;;;;;;40.30;22.20;;;9.20;99.90;;;;;;5005957;28;20041;-76
2024/03/06 10:58:13;;;;;;;36.27;21.30;;;9.10;99.90;;;;;;4999321;28;20066;-76
2024/03/06 11:00:43;;;;;;;46.03;23.65;;;8.40;99.90;;;;;;4986565;28;20041;-76
2024/03/06 11:03:12;;;;;;;37.75;22.77;;;8.80;99.90;;;;;;5029675;28;20037;-76
2024/03/06 11:05:40;;;;;;;37.05;21.88;;;9.90;99.90;;;;;;5032080;28;20040;-76
2024/03/06 11:08:13;;;;;;;38.67;22.90;;;9.90;99.90;;;;;;5023693;28;20084;-76
2024/03/06 11:10:43;;;;;;;39.53;23.13;;;9.00;99.90;;;;;;5009737;28;20041;-76
2024/03/06 11:13:25;;;;;;;39.53;23.20;;;9.00;99.90;;;;;;5009516;28;20061;-76
2024/03/06 11:15:53;;;;;;;37.50;23.23;;;9.10;99.90;;;;;;5034528;28;20048;-76
2024/03/06 11:18:28;;;;;;;39.13;24.20;;;9.10;99.90;;;;;;5028711;28;20041;-76
2024/03/06 11:21:01;;;;;;;40.47;23.73;;;9.20;99.90;;;;;;5000209;28;20400;-76
2024/03/06 11:23:27;;;;;;;35.33;22.90;;;8.20;99.90;;;;;;5011244;28;20523;-76
2024/03/06 11:28:23;;;;;;;36.28;23.48;;;9.90;99.90;;;;;;5034261;28;20087;-76
2024/03/06 11:31:02;;;;;;;36.53;23.65;;;8.70;99.90;;;;;;5021806;28;20045;-76
2024/03/06 11:33:47;;;;;;;39.00;24.25;;;9.50;99.90;;;;;;5003987;28;20489;-76
2024/03/06 11:36:18;;;;;;;36.95;22.95;;;9.70;99.90;;;;;;4998787;28;20419;-76
2024/03/06 11:39:06;;;;;;;39.38;23.73;;;9.80;99.90;;;;;;5023641;28;20430;-76
2024/03/06 11:41:49;;;;;;;41.53;24.35;;;9.90;99.90;;;;;;4996790;28;20060;-76
2024/03/06 11:44:21;;;;;;;38.97;22.70;;;9.40;99.90;;;;;;5031002;28;20455;-76
2024/03/06 11:46:48;;;;;;;36.17;23.92;;;10.00;99.90;;;;;;4998746;28;20025;-76
2024/03/06 11:49:25;;;;;;;37.70;23.58;;;10.80;99.90;;;;;;5031391;28;20566;-76
2024/03/06 11:51:59;;;;;;;47.22;24.83;;;9.80;99.90;;;;;;5013707;28;20500;-76
2024/03/06 11:54:26;;;;;;;34.25;23.27;;;10.30;99.90;;;;;;5031294;28;20038;-76
2024/03/06 11:56:58;;;;;;;37.95;23.75;;;10.50;99.90;;;;;;5010453;28;20515;-76
2024/03/06 11:59:24;;;;;;;37.70;24.45;;;10.70;99.90;;;;;;4998283;28;20044;-76
2024/03/06 12:01:52;;;;;;;39.45;23.45;;;10.80;99.90;;;;;;5014261;28;20505;-77
2024/03/06 12:04:19;;;;;;;35.00;23.15;;;11.40;99.90;;;;;;5013697;28;20038;-76
2024/03/06 12:06:47;;;;;;;35.80;23.65;;;12.10;99.90;;;;;;4995525;28;20042;-76
2024/03/06 12:09:12;;;;;;;36.08;23.63;;;11.70;99.90;;;;;;5032656;28;20037;-77
2024/03/06 12:11:38;;;;;;;35.70;24.00;;;12.20;99.90;;;;;;4999679;28;20423;-77
2024/03/06 12:14:05;;;;;;;35.65;23.75;;;11.60;99.90;;;;;;5012056;28;20045;-77
2024/03/06 12:16:30;;;;;;;33.75;22.88;;;12.30;99.90;;;;;;5003388;28;20093;-77
2024/03/06 12:19:49;;;;;;;37.58;24.33;;;11.60;99.90;;;;;;5001041;28;20663;-77
2024/03/06 12:22:19;;;;;;;39.50;23.45;;;11.70;99.90;;;;;;5019677;28;20063;-77
2024/03/06 12:24:46;;;;;;;38.40;24.83;;;12.00;99.90;;;;;;5030629;28;20044;-77
2024/03/06 12:27:13;;;;;;;34.70;24.15;;;12.00;99.90;;;;;;5023275;28;20029;-76
2024/03/06 12:29:41;;;;;;;36.92;22.58;;;11.90;99.90;;;;;;5033121;28;20516;-76
2024/03/06 12:32:34;;;;;;;33.90;22.90;;;12.00;99.90;;;;;;5027257;28;20109;-77
2024/03/06 12:34:59;;;;;;;37.17;23.90;;;12.00;99.90;;;;;;5014505;28;20683;-77
2024/03/06 12:38:00;;;;;;;37.17;25.15;;;12.20;99.90;;;;;;5010997;28;20092;-77
2024/03/06 12:41:40;;;;;;;34.53;23.67;;;12.10;99.90;;;;;;5014506;28;20207;-77
2024/03/06 12:44:41;;;;;;;36.08;23.73;;;12.10;99.90;;;;;;5029198;28;20733;-78
2024/03/06 12:47:06;;;;;;;41.00;24.95;;;13.10;99.90;;;;;;5007885;28;20053;-77